sensor_id;sensor_type;location;lat;lon;timestamp;pressure;altitude;pressure_sealevel;temperature;humidity
37368;BME280;23240;43.210;27.910;2023-01-15T00:01:24;101867.63;;;4.01;100.00
37368;BME280;23240;43.210;27.910;2023-01-15T00:03:52;101861.16;;;4.08;100.00
37368;BME280;23240;43.210;27.910;2023-01-15T00:06:18;101854.59;;;4.19;100.00
37368;BME280;23240;43.210;27.910;2023-01-15T00:08:44;101855.28;;;4.24;100.00
37368;BME280;23240;43.210;27.910;2023-01-15T00:11:10;101851.50;;;4.31;100.00
37368;BME280;23240;43.210;27.910;2023-01-15T00:13:36;101855.88;;;4.32;100.00
37368;BME280;23240;43.210;27.910;2023-01-15T00:16:04;101857.78;;;4.28;100.00
37368;BME280;23240;43.210;27.910;2023-01-15T00:18:29;101857.88;;;4.25;100.00
37368;BME280;23240;43.210;27.910;2023-01-15T00:21:03;101851.59;;;4.28;100.00
37368;BME280;23240;43.210;27.910;2023-01-15T00:23:29;101844.25;;;4.34;100.00
37368;BME280;23240;43.210;27.910;2023-01-15T00:26:18;101841.78;;;4.30;100.00
37368;BME280;23240;43.210;27.910;2023-01-15T00:29:03;101848.72;;;4.34;100.00
37368;BME280;23240;43.210;27.910;2023-01-15T00:31:30;101850.09;;;4.44;100.00
37368;BME280;23240;43.210;27.910;2023-01-15T00:33:56;101847.41;;;4.46;100.00
37368;BME280;23240;43.210;27.910;2023-01-15T00:36:22;101846.47;;;4.47;100.00
37368;BME280;23240;43.210;27.910;2023-01-15T00:38:47;101847.41;;;4.46;100.00
37368;BME280;23240;43.210;27.910;2023-01-15T00:41:13;101849.81;;;4.52;100.00
37368;BME280;23240;43.210;27.910;2023-01-15T00:43:39;101844.38;;;4.55;100.00
37368;BME280;23240;43.210;27.910;2023-01-15T00:46:04;101848.94;;;4.51;100.00
37368;BME280;23240;43.210;27.910;2023-01-15T00:48:33;101846.41;;;4.48;100.00
37368;BME280;23240;43.210;27.910;2023-01-15T00:50:58;101848.19;;;4.48;100.00
37368;BME280;23240;43.210;27.910;2023-01-15T00:53:23;101843.13;;;4.42;100.00
37368;BME280;23240;43.210;27.910;2023-01-15T00:55:49;101850.69;;;4.29;100.00
37368;BME280;23240;43.210;27.910;2023-01-15T00:58:14;101855.41;;;4.21;100.00
37368;BME280;23240;43.210;27.910;2023-01-15T01:00:40;101853.81;;;4.17;100.00
37368;BME280;23240;43.210;27.910;2023-01-15T01:03:05;101850.56;;;4.08;100.00
37368;BME280;23240;43.210;27.910;2023-01-15T01:05:31;101845.34;;;4.05;100.00
37368;BME280;23240;43.210;27.910;2023-01-15T01:07:57;101845.50;;;4.02;100.00
37368;BME280;23240;43.210;27.910;2023-01-15T01:10:24;101851.88;;;3.97;100.00
37368;BME280;23240;43.210;27.910;2023-01-15T01:12:50;101849.28;;;3.95;100.00
37368;BME280;23240;43.210;27.910;2023-01-15T01:15:18;101843.16;;;3.93;100.00
37368;BME280;23240;43.210;27.910;2023-01-15T01:17:44;101843.16;;;3.93;100.00
37368;BME280;23240;43.210;27.910;2023-01-15T01:20:13;101835.81;;;4.01;100.00
37368;BME280;23240;43.210;27.910;2023-01-15T01:22:39;101836.38;;;4.09;100.00
37368;BME280;23240;43.210;27.910;2023-01-15T01:25:05;101829.94;;;4.17;100.00
37368;BME280;23240;43.210;27.910;2023-01-15T01:27:31;101831.50;;;4.22;100.00
37368;BME280;23240;43.210;27.910;2023-01-15T01:29:56;101830.28;;;4.31;100.00
37368;BME280;23240;43.210;27.910;2023-01-15T01:32:22;101835.63;;;4.29;100.00
37368;BME280;23240;43.210;27.910;2023-01-15T01:34:47;101842.63;;;4.32;100.00
37368;BME280;23240;43.210;27.910;2023-01-15T01:37:13;101842.09;;;4.22;100.00
37368;BME280;23240;43.210;27.910;2023-01-15T01:39:39;101851.94;;;4.19;100.00
37368;BME280;23240;43.210;27.910;2023-01-15T01:42:11;101844.22;;;4.12;100.00
37368;BME280;23240;43.210;27.910;2023-01-15T01:47:12;101845.34;;;4.05;100.00
37368;BME280;23240;43.210;27.910;2023-01-15T01:49:42;101839.19;;;4.05;100.00
37368;BME280;23240;43.210;27.910;2023-01-15T01:52:12;101836.50;;;4.06;100.00
37368;BME280;23240;43.210;27.910;2023-01-15T01:54:41;101843.00;;;3.98;100.00
37368;BME280;23240;43.210;27.910;2023-01-15T01:57:10;101836.09;;;3.94;100.00
37368;BME280;23240;43.210;27.910;2023-01-15T01:59:36;101844.09;;;3.92;100.00
37368;BME280;23240;43.210;27.910;2023-01-15T02:02:03;101843.94;;;3.97;100.00
37368;BME280;23240;43.210;27.910;2023-01-15T02:04:29;101852.75;;;3.97;100.00
37368;BME280;23240;43.210;27.910;2023-01-15T02:06:55;101852.75;;;3.97;100.00
37368;BME280;23240;43.210;27.910;2023-01-15T02:09:23;101850.69;;;3.80;100.00
37368;BME280;23240;43.210;27.910;2023-01-15T02:11:50;101850.09;;;3.72;100.00
37368;BME280;23240;43.210;27.910;2023-01-15T02:17:14;101846.03;;;3.62;100.00
37368;BME280;23240;43.210;27.910;2023-01-15T02:19:54;101839.25;;;3.55;100.00
37368;BME280;23240;43.210;27.910;2023-01-15T02:27:46;101837.59;;;3.76;100.00
37368;BME280;23240;43.210;27.910;2023-01-15T02:30:26;101843.03;;;3.73;100.00
37368;BME280;23240;43.210;27.910;2023-01-15T02:33:10;101839.88;;;3.61;100.00
37368;BME280;23240;43.210;27.910;2023-01-15T02:35:53;101841.72;;;3.59;100.00
37368;BME280;23240;43.210;27.910;2023-01-15T02:38:21;101831.00;;;3.63;100.00
37368;BME280;23240;43.210;27.910;2023-01-15T02:40:50;101833.47;;;3.69;100.00
37368;BME280;23240;43.210;27.910;2023-01-15T02:43:19;101830.47;;;3.78;100.00
37368;BME280;23240;43.210;27.910;2023-01-15T02:45:48;101828.88;;;3.72;100.00
37368;BME280;23240;43.210;27.910;2023-01-15T02:48:16;101830.69;;;3.72;100.00
37368;BME280;23240;43.210;27.910;2023-01-15T02:50:57;101823.72;;;3.69;100.00
37368;BME280;23240;43.210;27.910;2023-01-15T02:53:27;101833.47;;;3.69;100.00
37368;BME280;23240;43.210;27.910;2023-01-15T02:55:58;101836.75;;;3.75;100.00
37368;BME280;23240;43.210;27.910;2023-01-15T02:58:31;101837.38;;;3.82;100.00
37368;BME280;23240;43.210;27.910;2023-01-15T03:01:00;101828.41;;;3.86;100.00
37368;BME280;23240;43.210;27.910;2023-01-15T03:04:30;101826.34;;;3.94;100.00
37368;BME280;23240;43.210;27.910;2023-01-15T03:09:02;101824.38;;;3.99;100.00
37368;BME280;23240;43.210;27.910;2023-01-15T03:11:28;101815.28;;;4.06;100.00
37368;BME280;23240;43.210;27.910;2023-01-15T03:14:03;101823.81;;;4.15;100.00
37368;BME280;23240;43.210;27.910;2023-01-15T03:16:34;101809.84;;;4.09;100.00
37368;BME280;23240;43.210;27.910;2023-01-15T03:19:25;101804.44;;;4.12;100.00
37368;BME280;23240;43.210;27.910;2023-01-15T03:25:23;101805.22;;;4.16;100.00
37368;BME280;23240;43.210;27.910;2023-01-15T03:27:52;101808.66;;;4.18;100.00
37368;BME280;23240;43.210;27.910;2023-01-15T03:30:21;101811.13;;;4.23;100.00
37368;BME280;23240;43.210;27.910;2023-01-15T03:32:47;101815.69;;;4.19;100.00
37368;BME280;23240;43.210;27.910;2023-01-15T03:38:03;101817.63;;;4.14;100.00
37368;BME280;23240;43.210;27.910;2023-01-15T03:40:29;101814.91;;;4.16;100.00
37368;BME280;23240;43.210;27.910;2023-01-15T03:43:00;101819.31;;;4.17;100.00
37368;BME280;23240;43.210;27.910;2023-01-15T03:45:51;101819.44;;;4.13;100.00
37368;BME280;23240;43.210;27.910;2023-01-15T03:48:34;101815.84;;;4.15;100.00
37368;BME280;23240;43.210;27.910;2023-01-15T03:53:43;101819.50;;;4.12;100.00
37368;BME280;23240;43.210;27.910;2023-01-15T03:56:30;101820.78;;;4.02;100.00
37368;BME280;23240;43.210;27.910;2023-01-15T03:59:11;101829.16;;;3.90;100.00
37368;BME280;23240;43.210;27.910;2023-01-15T04:01:41;101826.75;;;3.83;100.00
37368;BME280;23240;43.210;27.910;2023-01-15T04:04:09;101828.63;;;3.80;100.00
37368;BME280;23240;43.210;27.910;2023-01-15T04:06:38;101838.44;;;3.78;100.00
37368;BME280;23240;43.210;27.910;2023-01-15T04:09:06;101838.31;;;3.81;100.00
37368;BME280;23240;43.210;27.910;2023-01-15T04:11:32;101839.13;;;3.83;100.00
37368;BME280;23240;43.210;27.910;2023-01-15T04:13:58;101844.25;;;3.88;100.00
37368;BME280;23240;43.210;27.910;2023-01-15T04:16:26;101838.81;;;3.92;100.00
37368;BME280;23240;43.210;27.910;2023-01-15T04:18:52;101838.81;;;3.92;100.00
37368;BME280;23240;43.210;27.910;2023-01-15T04:21:18;101835.09;;;3.96;100.00
37368;BME280;23240;43.210;27.910;2023-01-15T04:23:43;101835.00;;;3.99;100.00
37368;BME280;23240;43.210;27.910;2023-01-15T04:26:09;101835.69;;;4.04;100.00
37368;BME280;23240;43.210;27.910;2023-01-15T04:28:34;101832.16;;;4.04;100.00
37368;BME280;23240;43.210;27.910;2023-01-15T04:31:00;101832.69;;;4.13;100.00
37368;BME280;23240;43.210;27.910;2023-01-15T04:33:25;101832.69;;;4.13;100.00
37368;BME280;23240;43.210;27.910;2023-01-15T04:35:51;101830.22;;;4.09;100.00
37368;BME280;23240;43.210;27.910;2023-01-15T04:38:16;101826.00;;;4.03;100.00
37368;BME280;23240;43.210;27.910;2023-01-15T04:40:43;101831.38;;;4.02;100.00
37368;BME280;23240;43.210;27.910;2023-01-15T04:43:26;101829.44;;;4.05;100.00
37368;BME280;23240;43.210;27.910;2023-01-15T04:46:10;101831.03;;;4.11;100.00
37368;BME280;23240;43.210;27.910;2023-01-15T04:48:38;101829.09;;;4.15;100.00
37368;BME280;23240;43.210;27.910;2023-01-15T04:51:04;101836.78;;;3.99;100.00
37368;BME280;23240;43.210;27.910;2023-01-15T04:53:30;101832.84;;;3.85;100.00
37368;BME280;23240;43.210;27.910;2023-01-15T04:56:00;101839.69;;;3.68;100.00
37368;BME280;23240;43.210;27.910;2023-01-15T04:58:26;101838.38;;;3.54;100.00
37368;BME280;23240;43.210;27.910;2023-01-15T05:00:52;101854.50;;;3.48;100.00
37368;BME280;23240;43.210;27.910;2023-01-15T05:03:17;101857.28;;;3.44;100.00
37368;BME280;23240;43.210;27.910;2023-01-15T05:05:43;101863.75;;;3.35;100.00
37368;BME280;23240;43.210;27.910;2023-01-15T05:08:09;101866.78;;;3.24;100.00
37368;BME280;23240;43.210;27.910;2023-01-15T05:10:34;101869.75;;;3.14;100.00
37368;BME280;23240;43.210;27.910;2023-01-15T05:13:00;101872.66;;;3.06;100.00
37368;BME280;23240;43.210;27.910;2023-01-15T05:15:25;101877.25;;;3.01;100.00
37368;BME280;23240;43.210;27.910;2023-01-15T05:17:51;101879.97;;;2.98;100.00
37368;BME280;23240;43.210;27.910;2023-01-15T05:20:16;101882.69;;;2.96;100.00
37368;BME280;23240;43.210;27.910;2023-01-15T05:22:42;101882.47;;;3.02;100.00
37368;BME280;23240;43.210;27.910;2023-01-15T05:25:08;101887.72;;;3.04;100.00
37368;BME280;23240;43.210;27.910;2023-01-15T05:27:33;101891.22;;;3.04;100.00
37368;BME280;23240;43.210;27.910;2023-01-15T05:29:59;101888.50;;;3.07;100.00
37368;BME280;23240;43.210;27.910;2023-01-15T05:32:24;101880.81;;;3.00;100.00
37368;BME280;23240;43.210;27.910;2023-01-15T05:34:50;101888.78;;;2.98;100.00
37368;BME280;23240;43.210;27.910;2023-01-15T05:37:15;101886.34;;;2.92;100.00
37368;BME280;23240;43.210;27.910;2023-01-15T05:39:41;101889.22;;;2.84;100.00
37368;BME280;23240;43.210;27.910;2023-01-15T05:42:06;101884.91;;;2.82;100.00
37368;BME280;23240;43.210;27.910;2023-01-15T05:44:32;101889.50;;;2.75;100.00
37368;BME280;23240;43.210;27.910;2023-01-15T05:46:59;101893.91;;;2.75;100.00
37368;BME280;23240;43.210;27.910;2023-01-15T05:49:28;101883.34;;;2.75;100.00
37368;BME280;23240;43.210;27.910;2023-01-15T05:51:56;101884.91;;;2.82;100.00
37368;BME280;23240;43.210;27.910;2023-01-15T05:54:24;101895.38;;;2.85;100.00
37368;BME280;23240;43.210;27.910;2023-01-15T05:56:50;101890.84;;;2.89;100.00
37368;BME280;23240;43.210;27.910;2023-01-15T05:59:18;101892.41;;;2.96;100.00
37368;BME280;23240;43.210;27.910;2023-01-15T06:01:45;101885.19;;;3.01;100.00
37368;BME280;23240;43.210;27.910;2023-01-15T06:04:11;101892.25;;;3.00;100.00
37368;BME280;23240;43.210;27.910;2023-01-15T06:06:42;101888.94;;;2.94;100.00
37368;BME280;23240;43.210;27.910;2023-01-15T06:09:08;101890.66;;;2.95;100.00
37368;BME280;23240;43.210;27.910;2023-01-15T06:11:34;101893.06;;;3.02;100.00
37368;BME280;23240;43.210;27.910;2023-01-15T06:13:59;101888.63;;;3.03;100.00
37368;BME280;23240;43.210;27.910;2023-01-15T06:16:25;101892.97;;;3.05;100.00
37368;BME280;23240;43.210;27.910;2023-01-15T06:18:50;101901.81;;;3.04;100.00
37368;BME280;23240;43.210;27.910;2023-01-15T06:21:16;101898.06;;;3.12;100.00
37368;BME280;23240;43.210;27.910;2023-01-15T06:23:42;101894.28;;;3.19;100.00
37368;BME280;23240;43.210;27.910;2023-01-15T06:26:15;101887.06;;;3.24;100.00
37368;BME280;23240;43.210;27.910;2023-01-15T06:28:41;101892.56;;;3.18;100.00
37368;BME280;23240;43.210;27.910;2023-01-15T06:31:08;101898.63;;;3.21;100.00
37368;BME280;23240;43.210;27.910;2023-01-15T06:33:35;101896.78;;;3.23;100.00
37368;BME280;23240;43.210;27.910;2023-01-15T06:36:14;101892.91;;;3.33;100.00
37368;BME280;23240;43.210;27.910;2023-01-15T06:38:40;101889.41;;;3.33;100.00
37368;BME280;23240;43.210;27.910;2023-01-15T06:41:11;101886.03;;;3.29;100.00
37368;BME280;23240;43.210;27.910;2023-01-15T06:43:56;101888.66;;;3.29;100.00
37368;BME280;23240;43.210;27.910;2023-01-15T06:46:43;101885.41;;;3.21;100.00
37368;BME280;23240;43.210;27.910;2023-01-15T06:49:28;101882.81;;;3.20;100.00
37368;BME280;23240;43.210;27.910;2023-01-15T06:51:54;101887.06;;;3.24;100.00
37368;BME280;23240;43.210;27.910;2023-01-15T06:54:19;101882.44;;;3.30;100.00
37368;BME280;23240;43.210;27.910;2023-01-15T06:56:45;101889.06;;;3.44;100.00
37368;BME280;23240;43.210;27.910;2023-01-15T06:59:10;101877.13;;;3.57;100.00
37368;BME280;23240;43.210;27.910;2023-01-15T07:01:36;101883.69;;;3.72;100.00
37368;BME280;23240;43.210;27.910;2023-01-15T07:04:01;101879.47;;;3.91;100.00
37368;BME280;23240;43.210;27.910;2023-01-15T07:06:27;101879.72;;;4.08;100.00
37368;BME280;23240;43.210;27.910;2023-01-15T07:08:53;101880.84;;;4.26;100.00
37368;BME280;23240;43.210;27.910;2023-01-15T07:11:18;101872.25;;;4.43;100.00
37368;BME280;23240;43.210;27.910;2023-01-15T07:13:44;101880.72;;;4.53;100.00
37368;BME280;23240;43.210;27.910;2023-01-15T07:16:09;101875.50;;;4.73;100.00
37368;BME280;23240;43.210;27.910;2023-01-15T07:18:53;101881.25;;;4.84;100.00
37368;BME280;23240;43.210;27.910;2023-01-15T07:21:19;101877.34;;;4.93;100.00
37368;BME280;23240;43.210;27.910;2023-01-15T07:23:45;101882.16;;;4.83;100.00
37368;BME280;23240;43.210;27.910;2023-01-15T07:26:11;101882.13;;;4.85;100.00
37368;BME280;23240;43.210;27.910;2023-01-15T07:28:36;101870.09;;;4.98;100.00
37368;BME280;23240;43.210;27.910;2023-01-15T07:31:02;101875.56;;;5.15;100.00
37368;BME280;23240;43.210;27.910;2023-01-15T07:33:27;101869.22;;;5.20;100.00
37368;BME280;23240;43.210;27.910;2023-01-15T07:35:53;101866.25;;;5.27;100.00
37368;BME280;23240;43.210;27.910;2023-01-15T07:38:18;101868.56;;;5.35;100.00
37368;BME280;23240;43.210;27.910;2023-01-15T07:40:44;101867.19;;;5.47;100.00
37368;BME280;23240;43.210;27.910;2023-01-15T07:43:29;101859.63;;;5.58;100.00
37368;BME280;23240;43.210;27.910;2023-01-15T07:46:13;101869.25;;;5.60;100.00
37368;BME280;23240;43.210;27.910;2023-01-15T07:48:57;101868.59;;;5.76;100.00
37368;BME280;23240;43.210;27.910;2023-01-15T07:51:41;101861.94;;;5.65;100.00
37368;BME280;23240;43.210;27.910;2023-01-15T07:54:07;101863.94;;;5.60;100.00
37368;BME280;23240;43.210;27.910;2023-01-15T07:56:32;101861.44;;;5.57;100.00
37368;BME280;23240;43.210;27.910;2023-01-15T07:58:58;101871.13;;;5.58;100.00
37368;BME280;23240;43.210;27.910;2023-01-15T08:01:23;101870.34;;;5.77;100.00
37368;BME280;23240;43.210;27.910;2023-01-15T08:03:49;101871.53;;;5.90;100.00
37368;BME280;23240;43.210;27.910;2023-01-15T08:06:14;101865.41;;;6.08;100.00
37368;BME280;23240;43.210;27.910;2023-01-15T08:08:40;101863.91;;;6.22;100.00
37368;BME280;23240;43.210;27.910;2023-01-15T08:11:05;101865.06;;;6.16;100.00
37368;BME280;23240;43.210;27.910;2023-01-15T08:13:51;101857.09;;;6.35;100.00
37368;BME280;23240;43.210;27.910;2023-01-15T08:16:35;101861.84;;;6.47;100.00
37368;BME280;23240;43.210;27.910;2023-01-15T08:19:01;101864.09;;;6.56;100.00
37368;BME280;23240;43.210;27.910;2023-01-15T08:21:27;101857.97;;;6.73;100.00
37368;BME280;23240;43.210;27.910;2023-01-15T08:23:52;101856.69;;;6.82;100.00
37368;BME280;23240;43.210;27.910;2023-01-15T08:26:18;101856.69;;;6.82;100.00
37368;BME280;23240;43.210;27.910;2023-01-15T08:28:44;101856.59;;;6.83;100.00
37368;BME280;23240;43.210;27.910;2023-01-15T08:31:09;101847.72;;;7.02;100.00
37368;BME280;23240;43.210;27.910;2023-01-15T08:33:34;101852.81;;;7.24;100.00
37368;BME280;23240;43.210;27.910;2023-01-15T08:36:00;101859.19;;;7.38;100.00
37368;BME280;23240;43.210;27.910;2023-01-15T08:38:25;101846.56;;;7.42;100.00
37368;BME280;23240;43.210;27.910;2023-01-15T08:40:54;101850.63;;;7.49;100.00
37368;BME280;23240;43.210;27.910;2023-01-15T08:43:27;101858.66;;;7.66;100.00
37368;BME280;23240;43.210;27.910;2023-01-15T08:45:59;101849.00;;;7.46;100.00
37368;BME280;23240;43.210;27.910;2023-01-15T08:48:26;101846.41;;;7.28;100.00
37368;BME280;23240;43.210;27.910;2023-01-15T08:50:52;101842.19;;;7.41;100.00
37368;BME280;23240;43.210;27.910;2023-01-15T08:53:18;101840.59;;;7.54;100.00
37368;BME280;23240;43.210;27.910;2023-01-15T08:55:44;101848.53;;;7.56;100.00
37368;BME280;23240;43.210;27.910;2023-01-15T08:58:10;101845.94;;;7.54;100.00
37368;BME280;23240;43.210;27.910;2023-01-15T09:00:35;101838.97;;;7.69;100.00
37368;BME280;23240;43.210;27.910;2023-01-15T09:03:01;101842.16;;;7.76;100.00
37368;BME280;23240;43.210;27.910;2023-01-15T09:05:27;101833.19;;;7.94;100.00
37368;BME280;23240;43.210;27.910;2023-01-15T09:07:53;101831.31;;;7.96;100.00
37368;BME280;23240;43.210;27.910;2023-01-15T09:10:19;101836.84;;;8.09;100.00
37368;BME280;23240;43.210;27.910;2023-01-15T09:12:45;101835.19;;;8.06;100.00
37368;BME280;23240;43.210;27.910;2023-01-15T09:15:10;101828.16;;;8.05;100.00
37368;BME280;23240;43.210;27.910;2023-01-15T09:17:36;101828.84;;;8.09;100.00
37368;BME280;23240;43.210;27.910;2023-01-15T09:20:06;101824.84;;;8.33;100.00
37368;BME280;23240;43.210;27.910;2023-01-15T09:22:32;101814.91;;;8.37;100.00
37368;BME280;23240;43.210;27.910;2023-01-15T09:24:58;101808.38;;;8.25;100.00
37368;BME280;23240;43.210;27.910;2023-01-15T09:27:24;101813.09;;;8.20;100.00
37368;BME280;23240;43.210;27.910;2023-01-15T09:29:50;101811.28;;;8.38;100.00
37368;BME280;23240;43.210;27.910;2023-01-15T09:32:16;101806.34;;;8.46;100.00
37368;BME280;23240;43.210;27.910;2023-01-15T09:34:42;101805.84;;;8.55;100.00
37368;BME280;23240;43.210;27.910;2023-01-15T09:37:07;101798.19;;;8.49;100.00
37368;BME280;23240;43.210;27.910;2023-01-15T09:39:32;101795.97;;;8.41;100.00
37368;BME280;23240;43.210;27.910;2023-01-15T09:47:31;101795.66;;;8.46;100.00
37368;BME280;23240;43.210;27.910;2023-01-15T09:55:19;101790.66;;;7.91;100.00
37368;BME280;23240;43.210;27.910;2023-01-15T09:57:50;101788.81;;;7.76;100.00
37368;BME280;23240;43.210;27.910;2023-01-15T10:00:22;101785.81;;;7.82;100.00
37368;BME280;23240;43.210;27.910;2023-01-15T10:02:49;101780.69;;;7.79;100.00
37368;BME280;23240;43.210;27.910;2023-01-15T10:05:23;101780.03;;;7.73;100.00
37368;BME280;23240;43.210;27.910;2023-01-15T10:08:02;101776.88;;;7.83;100.00
37368;BME280;23240;43.210;27.910;2023-01-15T10:10:34;101771.91;;;7.92;100.00
37368;BME280;23240;43.210;27.910;2023-01-15T10:13:20;101763.00;;;8.09;100.00
37368;BME280;23240;43.210;27.910;2023-01-15T10:15:51;101760.84;;;8.16;100.00
37368;BME280;23240;43.210;27.910;2023-01-15T10:18:19;101758.34;;;8.29;100.00
37368;BME280;23240;43.210;27.910;2023-01-15T10:21:31;101742.84;;;8.35;100.00
37368;BME280;23240;43.210;27.910;2023-01-15T10:26:35;101743.41;;;8.58;100.00
37368;BME280;23240;43.210;27.910;2023-01-15T10:36:58;101729.41;;;8.68;100.00
37368;BME280;23240;43.210;27.910;2023-01-15T10:39:40;101719.97;;;8.47;100.00
37368;BME280;23240;43.210;27.910;2023-01-15T10:43:13;101715.41;;;8.49;100.00
37368;BME280;23240;43.210;27.910;2023-01-15T10:45:22;101715.03;;;8.55;100.00
37368;BME280;23240;43.210;27.910;2023-01-15T10:47:54;101718.25;;;8.62;100.00
37368;BME280;23240;43.210;27.910;2023-01-15T10:50:24;101710.63;;;8.70;100.00
37368;BME280;23240;43.210;27.910;2023-01-15T10:53:11;101702.00;;;8.81;100.00
37368;BME280;23240;43.210;27.910;2023-01-15T10:55:41;101698.69;;;8.91;100.00
37368;BME280;23240;43.210;27.910;2023-01-15T10:58:39;101693.81;;;8.98;100.00
37368;BME280;23240;43.210;27.910;2023-01-15T11:01:13;101695.06;;;8.92;100.00
37368;BME280;23240;43.210;27.910;2023-01-15T11:03:42;101691.34;;;8.95;100.00
37368;BME280;23240;43.210;27.910;2023-01-15T11:06:17;101702.38;;;8.89;100.00
37368;BME280;23240;43.210;27.910;2023-01-15T11:08:48;101697.38;;;8.68;100.00
37368;BME280;23240;43.210;27.910;2023-01-15T11:14:09;101700.13;;;8.67;100.00
37368;BME280;23240;43.210;27.910;2023-01-15T11:16:52;101699.66;;;8.74;100.00
37368;BME280;23240;43.210;27.910;2023-01-15T11:19:36;101687.22;;;8.59;100.00
37368;BME280;23240;43.210;27.910;2023-01-15T11:24:46;101689.19;;;8.56;100.00
37368;BME280;23240;43.210;27.910;2023-01-15T11:27:18;101688.75;;;8.63;100.00
37368;BME280;23240;43.210;27.910;2023-01-15T11:29:51;101680.16;;;8.58;100.00
37368;BME280;23240;43.210;27.910;2023-01-15T11:32:21;101680.69;;;8.49;100.00
37368;BME280;23240;43.210;27.910;2023-01-15T11:34:55;101680.53;;;8.52;100.00
37368;BME280;23240;43.210;27.910;2023-01-15T11:37:21;101667.25;;;8.50;100.00
37368;BME280;23240;43.210;27.910;2023-01-15T11:39:58;101671.56;;;8.53;100.00
37368;BME280;23240;43.210;27.910;2023-01-15T11:42:35;101672.69;;;8.49;100.00
37368;BME280;23240;43.210;27.910;2023-01-15T11:45:21;101675.56;;;8.60;100.00
37368;BME280;23240;43.210;27.910;2023-01-15T11:48:33;101670.28;;;8.44;100.00
37368;BME280;23240;43.210;27.910;2023-01-15T11:51:18;101666.38;;;8.50;100.00
37368;BME280;23240;43.210;27.910;2023-01-15T11:53:47;101660.66;;;8.42;100.00
37368;BME280;23240;43.210;27.910;2023-01-15T11:56:16;101660.44;;;8.45;100.00
37368;BME280;23240;43.210;27.910;2023-01-15T11:58:52;101663.63;;;8.36;100.00
37368;BME280;23240;43.210;27.910;2023-01-15T12:01:44;101664.25;;;8.25;100.00
37368;BME280;23240;43.210;27.910;2023-01-15T12:04:36;101660.88;;;8.21;100.00
37368;BME280;23240;43.210;27.910;2023-01-15T12:07:04;101666.06;;;8.09;100.00
37368;BME280;23240;43.210;27.910;2023-01-15T12:15:32;101661.66;;;7.60;100.00
37368;BME280;23240;43.210;27.910;2023-01-15T12:31:37;101648.31;;;7.60;100.00
37368;BME280;23240;43.210;27.910;2023-01-15T12:41:58;101658.28;;;7.57;100.00
37368;BME280;23240;43.210;27.910;2023-01-15T12:45:14;101653.09;;;7.38;100.00
37368;BME280;23240;43.210;27.910;2023-01-15T12:50:31;101647.28;;;7.30;100.00
37368;BME280;23240;43.210;27.910;2023-01-15T12:53:19;101648.09;;;7.32;100.00
37368;BME280;23240;43.210;27.910;2023-01-15T12:55:59;101648.09;;;7.32;100.00
37368;BME280;23240;43.210;27.910;2023-01-15T12:58:46;101643.63;;;7.32;100.00
37368;BME280;23240;43.210;27.910;2023-01-15T13:01:18;101649.81;;;7.33;100.00
37368;BME280;23240;43.210;27.910;2023-01-15T13:06:43;101642.31;;;7.24;100.00
37368;BME280;23240;43.210;27.910;2023-01-15T13:09:32;101637.47;;;7.14;100.00
37368;BME280;23240;43.210;27.910;2023-01-15T13:11:59;101638.56;;;7.10;100.00
37368;BME280;23240;43.210;27.910;2023-01-15T13:14:24;101639.25;;;7.14;100.00
37368;BME280;23240;43.210;27.910;2023-01-15T13:19:49;101628.94;;;7.08;100.00
37368;BME280;23240;43.210;27.910;2023-01-15T13:22:25;101623.63;;;7.08;100.00
37368;BME280;23240;43.210;27.910;2023-01-15T13:36:21;101621.53;;;6.97;100.00
37368;BME280;23240;43.210;27.910;2023-01-15T13:38:53;101617.19;;;6.94;100.00
37368;BME280;23240;43.210;27.910;2023-01-15T13:41:23;101619.88;;;6.94;100.00
37368;BME280;23240;43.210;27.910;2023-01-15T13:44:30;101622.16;;;6.85;100.00
37368;BME280;23240;43.210;27.910;2023-01-15T13:47:02;101616.53;;;6.74;100.00
37368;BME280;23240;43.210;27.910;2023-01-15T13:49:59;101621.69;;;6.59;100.00
37368;BME280;23240;43.210;27.910;2023-01-15T13:52:36;101615.50;;;6.59;100.00
37368;BME280;23240;43.210;27.910;2023-01-15T13:55:20;101623.09;;;6.66;100.00
37368;BME280;23240;43.210;27.910;2023-01-15T13:57:50;101619.34;;;6.70;100.00
37368;BME280;23240;43.210;27.910;2023-01-15T14:00:35;101614.34;;;6.64;100.00
37368;BME280;23240;43.210;27.910;2023-01-15T14:03:24;101627.16;;;6.56;100.00
37368;BME280;23240;43.210;27.910;2023-01-15T14:05:57;101617.69;;;6.51;100.00
37368;BME280;23240;43.210;27.910;2023-01-15T14:11:02;101616.34;;;6.42;100.00
37368;BME280;23240;43.210;27.910;2023-01-15T14:13:31;101609.94;;;6.46;100.00
37368;BME280;23240;43.210;27.910;2023-01-15T14:25:01;101603.22;;;6.39;100.00
37368;BME280;23240;43.210;27.910;2023-01-15T14:36:09;101604.31;;;6.35;100.00
37368;BME280;23240;43.210;27.910;2023-01-15T14:38:35;101605.06;;;6.37;100.00
37368;BME280;23240;43.210;27.910;2023-01-15T14:41:04;101594.63;;;6.34;100.00
37368;BME280;23240;43.210;27.910;2023-01-15T14:43:33;101595.47;;;6.34;100.00
37368;BME280;23240;43.210;27.910;2023-01-15T14:46:28;101598.81;;;6.38;100.00
37368;BME280;23240;43.210;27.910;2023-01-15T14:48:56;101600.56;;;6.39;100.00
37368;BME280;23240;43.210;27.910;2023-01-15T14:51:27;101604.22;;;6.36;100.00
37368;BME280;23240;43.210;27.910;2023-01-15T14:54:01;101591.06;;;6.33;100.00
37368;BME280;23240;43.210;27.910;2023-01-15T14:56:35;101591.31;;;6.29;100.00